New Yoshino — JG5527 — position and weather

sailwx.info

Track history (hours):
 
Tides and Currents Weather Stations Pressure Air Temp Water Temp Dewpoint Dewpoint Depression Visibility Wind Speed Wind Dir Waves Ship Positions

New Yoshino

Last reported at 2017-Apr-25 16:45 UTC. Time now 2017-Apr-26 05:56 UTC.
Position N 34°53' E 139°25'.

Length 102 m; draft 6.7 m.

Type: Tanker. MMSI: 431300724.

Date/timePositionNaut miles runAvg speedWind from/ knotsBaromVisibWave heightAir tempDewpointWater temp
2017-Apr-25 16:45N 34°53' E 139°25'312.0
2017-Apr-25 16:29N 34°56' E 139°28'612.2
2017-Apr-25 16:00N 34°59' E 139°33'612.4
2017-Apr-25 15:30N 35°03' E 139°39'612.5
2017-Apr-25 15:00N 35°08' E 139°44'1111.1
2017-Apr-25 14:00N 35°19' E 139°43'510.9
2017-Apr-25 13:30N 35°24' E 139°43'611.2
2017-Apr-25 13:00N 35°28' E 139°49'5 9.5
2017-Apr-25 12:30N 35°30' E 139°54'1 1.3
2017-Apr-25 11:54N 35°30' E 139°55'0 0.0
2017-Apr-25 11:12N 35°30' E 139°55'0 0.2
2017-Apr-25 11:00N 35°30' E 139°55'0 0.0
2017-Apr-25 08:39N 35°30' E 139°55'0 0.0
2017-Apr-25 08:21N 35°30' E 139°55'1 1.4
2017-Apr-25 08:00N 35°30' E 139°56'4 0.7
2017-Apr-25 01:31N 35°29' E 140°01'2 6.3
2017-Apr-25 01:16N 35°29' E 139°59'312.4
2017-Apr-25 01:00N 35°29' E 139°55'713.4
2017-Apr-25 00:30N 35°26' E 139°48'612.3
2017-Apr-25 00:00N 35°20' E 139°45'510.9
2017-Apr-24 23:31N 35°15' E 139°47'612.6
2017-Apr-24 23:00N 35°09' E 139°46'714.4
2017-Apr-24 22:30N 35°02' E 139°44'712.8
2017-Apr-24 21:56N 34°55' E 139°45'  
2017-Apr-22 16:07N 34°51' E 139°48'212.5
2017-Apr-22 15:56N 34°51' E 139°46'613.0
2017-Apr-22 15:30N 34°56' E 139°43'713.1
2017-Apr-22 15:00N 35°03' E 139°43'714.1
2017-Apr-22 14:30N 35°10' E 139°45'1212.2
2017-Apr-22 13:30N 35°22' E 139°42'612.4
2017-Apr-22 13:01N 35°27' E 139°46'4 7.0
2017-Apr-22 12:30N 35°30' E 139°45'0 0.4
2017-Apr-22 11:59N 35°30' E 139°45'0 0.0
2017-Apr-22 11:26N 35°30' E 139°45'0 0.0
2017-Apr-22 10:59N 35°30' E 139°45'0 0.0
2017-Apr-22 10:29N 35°30' E 139°45'0 0.0
2017-Apr-22 09:59N 35°30' E 139°45'0 0.0
2017-Apr-22 09:29N 35°30' E 139°45'0 0.0
2017-Apr-22 08:59N 35°30' E 139°45'0 0.0
2017-Apr-22 08:29N 35°30' E 139°45'0 0.9
2017-Apr-22 08:01N 35°30' E 139°45'3 6.6
2017-Apr-22 07:31N 35°27' E 139°43'5 9.7
2017-Apr-22 07:01N 35°29' E 139°49'0 0.1
2017-Apr-22 06:28N 35°29' E 139°49'0 0.1
2017-Apr-22 05:58N 35°29' E 139°49'0 0.1
2017-Apr-22 05:28N 35°29' E 139°49'0 0.0
2017-Apr-22 04:58N 35°29' E 139°49'0 0.0
2017-Apr-22 04:28N 35°29' E 139°49'0 0.0
2017-Apr-22 03:58N 35°29' E 139°49'1 2.8
2017-Apr-22 03:30N 35°30' E 139°48'2 3.9
2017-Apr-22 02:58N 35°30' E 139°45'0 0.0
2017-Apr-22 02:28N 35°30' E 139°45'0 0.0
2017-Apr-22 01:58N 35°30' E 139°45'0 0.0
2017-Apr-22 01:28N 35°30' E 139°45'0 0.0
2017-Apr-22 00:58N 35°30' E 139°45'0 0.0
2017-Apr-22 00:28N 35°30' E 139°45'0 0.0
2017-Apr-21 23:58N 35°30' E 139°45'0 0.0
2017-Apr-21 23:31N 35°30' E 139°45'2 3.4
2017-Apr-21 23:00N 35°29' E 139°43'3 5.3
2017-Apr-21 22:31N 35°27' E 139°45'611.6
2017-Apr-21 22:01N 35°30' E 139°52'3 5.2
2017-Apr-21 21:30N 35°30' E 139°55'0 0.0
2017-Apr-21 21:00N 35°30' E 139°55'0 0.0
2017-Apr-21 20:27N 35°30' E 139°55'0 0.0
2017-Apr-21 20:00N 35°30' E 139°55'0 0.0
2017-Apr-21 19:30N 35°30' E 139°55'0 0.0
2017-Apr-21 19:00N 35°30' E 139°55'0 0.0
2017-Apr-21 18:27N 35°30' E 139°55'0 0.0
2017-Apr-21 17:57N 35°30' E 139°55'0 0.0
2017-Apr-21 17:30N 35°30' E 139°55'0 0.0
2017-Apr-21 17:00N 35°30' E 139°55'0 0.0
2017-Apr-21 15:45N 35°30' E 139°55'0 0.0
2017-Apr-21 14:57N 35°30' E 139°55'0 0.0
2017-Apr-21 14:30N 35°30' E 139°55'0 0.0
2017-Apr-21 13:27N 35°30' E 139°55'0 0.0
2017-Apr-21 13:00N 35°30' E 139°55'0 0.0
2017-Apr-21 12:30N 35°30' E 139°55'0 0.0
2017-Apr-21 11:51N 35°30' E 139°55'0 0.0
2017-Apr-21 11:30N 35°30' E 139°55'0 0.1
2017-Apr-21 11:00N 35°30' E 139°55'0 0.0
2017-Apr-21 10:30N 35°30' E 139°55'0 0.0
2017-Apr-21 10:00N 35°30' E 139°55'0 0.1
2017-Apr-21 09:24N 35°30' E 139°55'3 6.4
2017-Apr-21 09:00N 35°30' E 139°58'2 0.4
2017-Apr-21 03:01N 35°29' E 140°00'2 8.1
2017-Apr-21 02:49N 35°30' E 139°59'1 1.8
2017-Apr-21 02:29N 35°30' E 139°58'0 0.0
2017-Apr-21 01:50N 35°30' E 139°58'0 0.1
2017-Apr-21 01:26N 35°30' E 139°58'3 7.7
2017-Apr-21 01:00N 35°29' E 139°54'612.6
2017-Apr-21 00:30N 35°25' E 139°48'612.6
2017-Apr-21 00:00N 35°20' E 139°44'611.9
2017-Apr-20 23:30N 35°14' E 139°47'713.4
2017-Apr-20 23:01N 35°08' E 139°46'714.3
2017-Apr-20 22:31N 35°01' E 139°43'712.8
2017-Apr-20 21:58N 34°54' E 139°45'7 0.1
2017-Apr-18 18:37N 34°51' E 139°52'311.4
2017-Apr-18 18:22N 34°52' E 139°49'411.2
2017-Apr-18 18:00N 34°54' E 139°45'611.4
2017-Apr-18 17:30N 34°59' E 139°42'612.3
2017-Apr-18 17:00N 35°05' E 139°44'612.7
2017-Apr-18 16:30N 35°11' E 139°46'611.8
2017-Apr-18 16:00N 35°17' E 139°45'612.2
2017-Apr-18 15:30N 35°23' E 139°42'612.9
2017-Apr-18 15:00N 35°27' E 139°48'5 9.9
2017-Apr-18 14:30N 35°29' E 139°54'1 0.8
2017-Apr-18 13:29N 35°29' E 139°54'0 0.0
2017-Apr-18 12:53N 35°29' E 139°54'0 0.0
2017-Apr-18 12:28N 35°29' E 139°54'0 0.0
2017-Apr-18 12:00N 35°29' E 139°54'0 0.2
2017-Apr-18 11:22N 35°29' E 139°55'0 0.0
2017-Apr-18 11:01N 35°29' E 139°55'0 0.1
2017-Apr-18 10:30N 35°29' E 139°55'0 0.0
2017-Apr-18 10:01N 35°29' E 139°55'0 0.0
2017-Apr-18 09:29N 35°29' E 139°55'0 0.1
2017-Apr-18 08:57N 35°29' E 139°55'0 0.0
2017-Apr-18 08:27N 35°29' E 139°55'0 0.0
2017-Apr-18 07:57N 35°29' E 139°55'0 0.0
2017-Apr-18 07:30N 35°29' E 139°55'0 0.0
2017-Apr-18 07:00N 35°29' E 139°55'0 0.0
2017-Apr-18 06:29N 35°29' E 139°55'0 0.0
2017-Apr-18 05:59N 35°29' E 139°55'0 0.0
2017-Apr-18 05:30N 35°29' E 139°55'0 0.0
2017-Apr-18 05:00N 35°29' E 139°55'0 0.0
2017-Apr-18 04:30N 35°29' E 139°55'0 0.0
2017-Apr-18 04:01N 35°29' E 139°55'0 0.0
2017-Apr-18 03:30N 35°29' E 139°55'0 0.0
2017-Apr-18 02:59N 35°29' E 139°55'0 0.0
2017-Apr-18 02:30N 35°29' E 139°55'0 0.0
2017-Apr-18 01:50N 35°29' E 139°55'0 0.0
2017-Apr-18 01:28N 35°29' E 139°55'0 0.0
2017-Apr-18 00:57N 35°29' E 139°55'0 0.0
2017-Apr-18 00:31N 35°29' E 139°55'0 0.0
2017-Apr-18 00:00N 35°29' E 139°55'0 0.0
2017-Apr-17 23:26N 35°29' E 139°55'0 0.0
2017-Apr-17 22:59N 35°29' E 139°55'0 0.0
2017-Apr-17 22:29N 35°29' E 139°55'0 0.0
2017-Apr-17 21:58N 35°29' E 139°55'0 0.0
2017-Apr-17 21:28N 35°29' E 139°55'0 0.0
2017-Apr-17 21:00N 35°29' E 139°55'0 0.0
2017-Apr-17 20:19N 35°29' E 139°55'0 0.0
2017-Apr-17 19:59N 35°29' E 139°55'0 0.0
2017-Apr-17 19:26N 35°29' E 139°55'0 0.0
2017-Apr-17 19:00N 35°29' E 139°55'0 0.0
2017-Apr-17 18:30N 35°29' E 139°55'0 0.0
2017-Apr-17 17:58N 35°29' E 139°55'0 0.1
2017-Apr-17 17:27N 35°29' E 139°54'0 0.0
2017-Apr-17 17:00N 35°29' E 139°54'0 0.0
2017-Apr-17 16:30N 35°29' E 139°54'0 0.0
2017-Apr-17 13:14N 35°29' E 139°54'0 0.0
2017-Apr-17 13:00N 35°29' E 139°54'0 0.0
2017-Apr-17 12:24N 35°29' E 139°54'0 0.2
2017-Apr-17 12:00N 35°29' E 139°55'0 0.1
2017-Apr-17 11:30N 35°29' E 139°55'0 0.0
2017-Apr-17 10:57N 35°29' E 139°55'0 0.0
2017-Apr-17 10:19N 35°29' E 139°55'0 0.0
2017-Apr-17 10:00N 35°29' E 139°55'0 0.0
2017-Apr-17 09:30N 35°29' E 139°55'0 0.0
2017-Apr-17 09:00N 35°29' E 139°55'0 0.0
2017-Apr-17 08:29N 35°29' E 139°55'0 0.0
2017-Apr-17 07:59N 35°29' E 139°55'0 0.1
2017-Apr-17 07:30N 35°29' E 139°54'0 0.0
2017-Apr-17 06:56N 35°29' E 139°54'0 0.1
2017-Apr-17 05:48N 35°29' E 139°54'0 0.0
2017-Apr-17 05:28N 35°29' E 139°54'0 0.0
2017-Apr-17 05:00N 35°29' E 139°54'1 1.2
2017-Apr-17 04:30N 35°29' E 139°54'4 8.5
2017-Apr-17 04:01N 35°30' E 139°49'3 5.5
2017-Apr-17 03:30N 35°30' E 139°45'0 0.0
2017-Apr-17 03:00N 35°30' E 139°45'0 0.0
2017-Apr-17 02:27N 35°30' E 139°45'0 0.0
2017-Apr-17 01:57N 35°30' E 139°45'0 0.0
2017-Apr-17 01:30N 35°30' E 139°45'0 0.0
2017-Apr-17 00:57N 35°30' E 139°45'0 0.0
2017-Apr-17 00:30N 35°30' E 139°45'0 0.0
2017-Apr-16 23:57N 35°30' E 139°45'0 0.0
2017-Apr-16 23:30N 35°30' E 139°45'0 0.0
2017-Apr-16 23:00N 35°30' E 139°45'2 3.6
2017-Apr-16 22:30N 35°29' E 139°43'3 6.8
2017-Apr-16 22:00N 35°26' E 139°43'3 6.8
2017-Apr-16 21:30N 35°23' E 139°45'0 0.0
2017-Apr-16 21:00N 35°23' E 139°45'0 0.0
2017-Apr-16 20:30N 35°23' E 139°45'0 0.0
2017-Apr-16 20:00N 35°23' E 139°45'0 0.0
2017-Apr-16 19:30N 35°23' E 139°45'0 0.1
2017-Apr-16 19:00N 35°23' E 139°45'2 4.9
2017-Apr-16 18:30N 35°20' E 139°44'611.9
2017-Apr-16 18:00N 35°15' E 139°47'713.3
2017-Apr-16 17:30N 35°08' E 139°46'714.3
2017-Apr-16 17:00N 35°02' E 139°43'712.6
2017-Apr-16 16:26N 34°55' E 139°45'2010.8
2017-Apr-16 14:36N 34°57' E 140°09'  
Track history (hours):
 
Tides and Currents Weather Stations Pressure Air Temp Water Temp Dewpoint Dewpoint Depression Visibility Wind Speed Wind Dir Waves Ship Positions

New Yoshino

Last reported at 2017-Apr-25 16:45 UTC. Time now 2017-Apr-26 05:56 UTC.
Position N 34°53' E 139°25'.

Length 102 m; draft 6.7 m.

Type: Tanker. MMSI: 431300724.

Date/timePositionNaut miles runAvg speedWind from/ knotsBaromVisibWave heightAir tempDewpointWater temp
2017-Apr-25 16:45N 34°53' E 139°25'312.0
2017-Apr-25 16:29N 34°56' E 139°28'612.2
2017-Apr-25 16:00N 34°59' E 139°33'612.4
2017-Apr-25 15:30N 35°03' E 139°39'612.5
2017-Apr-25 15:00N 35°08' E 139°44'1111.1
2017-Apr-25 14:00N 35°19' E 139°43'510.9
2017-Apr-25 13:30N 35°24' E 139°43'611.2
2017-Apr-25 13:00N 35°28' E 139°49'5 9.5
2017-Apr-25 12:30N 35°30' E 139°54'1 1.3
2017-Apr-25 11:54N 35°30' E 139°55'0 0.0
2017-Apr-25 11:12N 35°30' E 139°55'0 0.2
2017-Apr-25 11:00N 35°30' E 139°55'0 0.0
2017-Apr-25 08:39N 35°30' E 139°55'0 0.0
2017-Apr-25 08:21N 35°30' E 139°55'1 1.4
2017-Apr-25 08:00N 35°30' E 139°56'4 0.7
2017-Apr-25 01:31N 35°29' E 140°01'2 6.3
2017-Apr-25 01:16N 35°29' E 139°59'312.4
2017-Apr-25 01:00N 35°29' E 139°55'713.4
2017-Apr-25 00:30N 35°26' E 139°48'612.3
2017-Apr-25 00:00N 35°20' E 139°45'510.9
2017-Apr-24 23:31N 35°15' E 139°47'612.6
2017-Apr-24 23:00N 35°09' E 139°46'714.4
2017-Apr-24 22:30N 35°02' E 139°44'712.8
2017-Apr-24 21:56N 34°55' E 139°45'  
2017-Apr-22 16:07N 34°51' E 139°48'212.5
2017-Apr-22 15:56N 34°51' E 139°46'613.0
2017-Apr-22 15:30N 34°56' E 139°43'713.1
2017-Apr-22 15:00N 35°03' E 139°43'714.1
2017-Apr-22 14:30N 35°10' E 139°45'1212.2
2017-Apr-22 13:30N 35°22' E 139°42'612.4
2017-Apr-22 13:01N 35°27' E 139°46'4 7.0
2017-Apr-22 12:30N 35°30' E 139°45'0 0.4
2017-Apr-22 11:59N 35°30' E 139°45'0 0.0
2017-Apr-22 11:26N 35°30' E 139°45'0 0.0
2017-Apr-22 10:59N 35°30' E 139°45'0 0.0
2017-Apr-22 10:29N 35°30' E 139°45'0 0.0
2017-Apr-22 09:59N 35°30' E 139°45'0 0.0
2017-Apr-22 09:29N 35°30' E 139°45'0 0.0
2017-Apr-22 08:59N 35°30' E 139°45'0 0.0
2017-Apr-22 08:29N 35°30' E 139°45'0 0.9
2017-Apr-22 08:01N 35°30' E 139°45'3 6.6
2017-Apr-22 07:31N 35°27' E 139°43'5 9.7
2017-Apr-22 07:01N 35°29' E 139°49'0 0.1
2017-Apr-22 06:28N 35°29' E 139°49'0 0.1
2017-Apr-22 05:58N 35°29' E 139°49'0 0.1
2017-Apr-22 05:28N 35°29' E 139°49'0 0.0
2017-Apr-22 04:58N 35°29' E 139°49'0 0.0
2017-Apr-22 04:28N 35°29' E 139°49'0 0.0
2017-Apr-22 03:58N 35°29' E 139°49'1 2.8
2017-Apr-22 03:30N 35°30' E 139°48'2 3.9
2017-Apr-22 02:58N 35°30' E 139°45'0 0.0
2017-Apr-22 02:28N 35°30' E 139°45'0 0.0
2017-Apr-22 01:58N 35°30' E 139°45'0 0.0
2017-Apr-22 01:28N 35°30' E 139°45'0 0.0
2017-Apr-22 00:58N 35°30' E 139°45'0 0.0
2017-Apr-22 00:28N 35°30' E 139°45'0 0.0
2017-Apr-21 23:58N 35°30' E 139°45'0 0.0
2017-Apr-21 23:31N 35°30' E 139°45'2 3.4
2017-Apr-21 23:00N 35°29' E 139°43'3 5.3
2017-Apr-21 22:31N 35°27' E 139°45'611.6
2017-Apr-21 22:01N 35°30' E 139°52'3 5.2
2017-Apr-21 21:30N 35°30' E 139°55'0 0.0
2017-Apr-21 21:00N 35°30' E 139°55'0 0.0
2017-Apr-21 20:27N 35°30' E 139°55'0 0.0
2017-Apr-21 20:00N 35°30' E 139°55'0 0.0
2017-Apr-21 19:30N 35°30' E 139°55'0 0.0
2017-Apr-21 19:00N 35°30' E 139°55'0 0.0
2017-Apr-21 18:27N 35°30' E 139°55'0 0.0
2017-Apr-21 17:57N 35°30' E 139°55'0 0.0
2017-Apr-21 17:30N 35°30' E 139°55'0 0.0
2017-Apr-21 17:00N 35°30' E 139°55'0 0.0
2017-Apr-21 15:45N 35°30' E 139°55'0 0.0
2017-Apr-21 14:57N 35°30' E 139°55'0 0.0
2017-Apr-21 14:30N 35°30' E 139°55'0 0.0
2017-Apr-21 13:27N 35°30' E 139°55'0 0.0
2017-Apr-21 13:00N 35°30' E 139°55'0 0.0
2017-Apr-21 12:30N 35°30' E 139°55'0 0.0
2017-Apr-21 11:51N 35°30' E 139°55'0 0.0
2017-Apr-21 11:30N 35°30' E 139°55'0 0.1
2017-Apr-21 11:00N 35°30' E 139°55'0 0.0
2017-Apr-21 10:30N 35°30' E 139°55'0 0.0
2017-Apr-21 10:00N 35°30' E 139°55'0 0.1
2017-Apr-21 09:24N 35°30' E 139°55'3 6.4
2017-Apr-21 09:00N 35°30' E 139°58'2 0.4
2017-Apr-21 03:01N 35°29' E 140°00'2 8.1
2017-Apr-21 02:49N 35°30' E 139°59'1 1.8
2017-Apr-21 02:29N 35°30' E 139°58'0 0.0
2017-Apr-21 01:50N 35°30' E 139°58'0 0.1
2017-Apr-21 01:26N 35°30' E 139°58'3 7.7
2017-Apr-21 01:00N 35°29' E 139°54'612.6
2017-Apr-21 00:30N 35°25' E 139°48'612.6
2017-Apr-21 00:00N 35°20' E 139°44'611.9
2017-Apr-20 23:30N 35°14' E 139°47'713.4
2017-Apr-20 23:01N 35°08' E 139°46'714.3
2017-Apr-20 22:31N 35°01' E 139°43'712.8
2017-Apr-20 21:58N 34°54' E 139°45'7 0.1
2017-Apr-18 18:37N 34°51' E 139°52'311.4
2017-Apr-18 18:22N 34°52' E 139°49'411.2
2017-Apr-18 18:00N 34°54' E 139°45'611.4
2017-Apr-18 17:30N 34°59' E 139°42'612.3
2017-Apr-18 17:00N 35°05' E 139°44'612.7
2017-Apr-18 16:30N 35°11' E 139°46'611.8
2017-Apr-18 16:00N 35°17' E 139°45'612.2
2017-Apr-18 15:30N 35°23' E 139°42'612.9
2017-Apr-18 15:00N 35°27' E 139°48'5 9.9
2017-Apr-18 14:30N 35°29' E 139°54'1 0.8
2017-Apr-18 13:29N 35°29' E 139°54'0 0.0
2017-Apr-18 12:53N 35°29' E 139°54'0 0.0
2017-Apr-18 12:28N 35°29' E 139°54'0 0.0
2017-Apr-18 12:00N 35°29' E 139°54'0 0.2
2017-Apr-18 11:22N 35°29' E 139°55'0 0.0
2017-Apr-18 11:01N 35°29' E 139°55'0 0.1
2017-Apr-18 10:30N 35°29' E 139°55'0 0.0
2017-Apr-18 10:01N 35°29' E 139°55'0 0.0
2017-Apr-18 09:29N 35°29' E 139°55'0 0.1
2017-Apr-18 08:57N 35°29' E 139°55'0 0.0
2017-Apr-18 08:27N 35°29' E 139°55'0 0.0
2017-Apr-18 07:57N 35°29' E 139°55'0 0.0
2017-Apr-18 07:30N 35°29' E 139°55'0 0.0
2017-Apr-18 07:00N 35°29' E 139°55'0 0.0
2017-Apr-18 06:29N 35°29' E 139°55'0 0.0
2017-Apr-18 05:59N 35°29' E 139°55'0 0.0
2017-Apr-18 05:30N 35°29' E 139°55'0 0.0
2017-Apr-18 05:00N 35°29' E 139°55'0 0.0
2017-Apr-18 04:30N 35°29' E 139°55'0 0.0
2017-Apr-18 04:01N 35°29' E 139°55'0 0.0
2017-Apr-18 03:30N 35°29' E 139°55'0 0.0
2017-Apr-18 02:59N 35°29' E 139°55'0 0.0
2017-Apr-18 02:30N 35°29' E 139°55'0 0.0
2017-Apr-18 01:50N 35°29' E 139°55'0 0.0
2017-Apr-18 01:28N 35°29' E 139°55'0 0.0
2017-Apr-18 00:57N 35°29' E 139°55'0 0.0
2017-Apr-18 00:31N 35°29' E 139°55'0 0.0
2017-Apr-18 00:00N 35°29' E 139°55'0 0.0
2017-Apr-17 23:26N 35°29' E 139°55'0 0.0
2017-Apr-17 22:59N 35°29' E 139°55'0 0.0
2017-Apr-17 22:29N 35°29' E 139°55'0 0.0
2017-Apr-17 21:58N 35°29' E 139°55'0 0.0
2017-Apr-17 21:28N 35°29' E 139°55'0 0.0
2017-Apr-17 21:00N 35°29' E 139°55'0 0.0
2017-Apr-17 20:19N 35°29' E 139°55'0 0.0
2017-Apr-17 19:59N 35°29' E 139°55'0 0.0
2017-Apr-17 19:26N 35°29' E 139°55'0 0.0
2017-Apr-17 19:00N 35°29' E 139°55'0 0.0
2017-Apr-17 18:30N 35°29' E 139°55'0 0.0
2017-Apr-17 17:58N 35°29' E 139°55'0 0.1
2017-Apr-17 17:27N 35°29' E 139°54'0 0.0
2017-Apr-17 17:00N 35°29' E 139°54'0 0.0
2017-Apr-17 16:30N 35°29' E 139°54'0 0.0
2017-Apr-17 13:14N 35°29' E 139°54'0 0.0
2017-Apr-17 13:00N 35°29' E 139°54'0 0.0
2017-Apr-17 12:24N 35°29' E 139°54'0 0.2
2017-Apr-17 12:00N 35°29' E 139°55'0 0.1
2017-Apr-17 11:30N 35°29' E 139°55'0 0.0
2017-Apr-17 10:57N 35°29' E 139°55'0 0.0
2017-Apr-17 10:19N 35°29' E 139°55'0 0.0
2017-Apr-17 10:00N 35°29' E 139°55'0 0.0
2017-Apr-17 09:30N 35°29' E 139°55'0 0.0
2017-Apr-17 09:00N 35°29' E 139°55'0 0.0
2017-Apr-17 08:29N 35°29' E 139°55'0 0.0
2017-Apr-17 07:59N 35°29' E 139°55'0 0.1
2017-Apr-17 07:30N 35°29' E 139°54'0 0.0
2017-Apr-17 06:56N 35°29' E 139°54'0 0.1
2017-Apr-17 05:48N 35°29' E 139°54'0 0.0
2017-Apr-17 05:28N 35°29' E 139°54'0 0.0
2017-Apr-17 05:00N 35°29' E 139°54'1 1.2
2017-Apr-17 04:30N 35°29' E 139°54'4 8.5
2017-Apr-17 04:01N 35°30' E 139°49'3 5.5
2017-Apr-17 03:30N 35°30' E 139°45'0 0.0
2017-Apr-17 03:00N 35°30' E 139°45'0 0.0
2017-Apr-17 02:27N 35°30' E 139°45'0 0.0
2017-Apr-17 01:57N 35°30' E 139°45'0 0.0
2017-Apr-17 01:30N 35°30' E 139°45'0 0.0
2017-Apr-17 00:57N 35°30' E 139°45'0 0.0
2017-Apr-17 00:30N 35°30' E 139°45'0 0.0
2017-Apr-16 23:57N 35°30' E 139°45'0 0.0
2017-Apr-16 23:30N 35°30' E 139°45'0 0.0
2017-Apr-16 23:00N 35°30' E 139°45'2 3.6
2017-Apr-16 22:30N 35°29' E 139°43'3 6.8
2017-Apr-16 22:00N 35°26' E 139°43'3 6.8
2017-Apr-16 21:30N 35°23' E 139°45'0 0.0
2017-Apr-16 21:00N 35°23' E 139°45'0 0.0
2017-Apr-16 20:30N 35°23' E 139°45'0 0.0
2017-Apr-16 20:00N 35°23' E 139°45'0 0.0
2017-Apr-16 19:30N 35°23' E 139°45'0 0.1
2017-Apr-16 19:00N 35°23' E 139°45'2 4.9
2017-Apr-16 18:30N 35°20' E 139°44'611.9
2017-Apr-16 18:00N 35°15' E 139°47'713.3
2017-Apr-16 17:30N 35°08' E 139°46'714.3
2017-Apr-16 17:00N 35°02' E 139°43'712.6
2017-Apr-16 16:26N 34°55' E 139°45'2010.8
2017-Apr-16 14:36N 34°57' E 140°09'  

Dump ship's entire track history